Time;durP1;ratioP1;P1;durP2;ratioP2;P2;SDS_P1;SDS_P2;PMS_P1;PMS_P2;Temp;Humidity;BMP_temperature;BMP_pressure;BME280_temperature;BME280_humidity;BME280_pressure;Samples;Min_cycle;Max_cycle;Signal;HPM_P1;HPM_P2
2021/10/27 00:00:34;;;;;;;16.40;10.63;;;;;;;14.90;65.97;100353.72;4953619;29;20120;-82
2021/10/27 00:03:01;;;;;;;14.68;10.15;;;;;;;14.91;65.80;100336.03;4953848;28;20109;-82
2021/10/27 00:05:28;;;;;;;15.10;10.07;;;;;;;14.92;65.86;100337.72;4953932;28;20085;-82
2021/10/27 00:08:18;;;;;;;15.98;10.05;;;;;;;14.87;66.75;100335.34;4953500;29;20146;-82
2021/10/27 00:10:45;;;;;;;13.48;9.40;;;;;;;14.92;65.97;100330.59;4953479;29;20053;-82
2021/10/27 00:13:12;;;;;;;16.00;9.55;;;;;;;14.93;65.89;100332.31;4953472;29;20052;-82
2021/10/27 00:15:41;;;;;;;12.13;9.30;;;;;;;14.92;66.36;100335.91;4952854;28;20130;-82
2021/10/27 00:18:08;;;;;;;17.02;10.52;;;;;;;14.93;65.97;100319.06;4952501;28;20051;-82
2021/10/27 00:20:35;;;;;;;15.70;9.60;;;;;;;14.94;66.02;100325.19;4952777;29;20138;-82
2021/10/27 00:23:15;;;;;;;15.35;10.38;;;;;;;14.91;66.65;100318.31;4953282;29;20054;-82
2021/10/27 00:25:43;;;;;;;16.02;9.52;;;;;;;14.93;66.09;100321.72;4953822;28;20051;-81
2021/10/27 00:28:30;;;;;;;16.55;10.52;;;;;;;14.88;67.06;100323.78;5326857;22;20071;-85
2021/10/27 00:30:58;;;;;;;15.35;10.15;;;;;;;14.92;66.44;100324.47;4952660;28;20237;-83
2021/10/27 00:33:25;;;;;;;13.52;9.48;;;;;;;14.92;66.42;100321.81;4952693;28;20055;-84
2021/10/27 00:35:54;;;;;;;17.65;10.45;;;;;;;14.90;66.40;100329.84;4951419;29;20051;-84
2021/10/27 00:38:20;;;;;;;13.90;10.38;;;;;;;14.89;66.53;100333.47;4953399;28;20101;-84
2021/10/27 00:40:47;;;;;;;16.38;10.32;;;;;;;14.89;66.35;100333.47;4951252;29;20047;-84
2021/10/27 00:43:22;;;;;;;19.15;10.50;;;;;;;14.87;67.03;100326.56;4951621;28;20106;-84
2021/10/27 00:45:49;;;;;;;14.48;10.05;;;;;;;14.90;66.53;100326.34;4951388;28;20463;-83
2021/10/27 00:48:16;;;;;;;13.73;8.88;;;;;;;14.90;66.67;100334.31;4952269;28;20055;-85
2021/10/27 00:51:08;;;;;;;13.68;8.85;;;;;;;14.86;67.18;100325.72;4944645;28;20054;-85
2021/10/27 00:54:58;;;;;;;18.38;9.13;;;;;;;14.87;67.43;100334.53;4951049;29;20062;-85
2021/10/27 00:58:05;;;;;;;;;;;;;;;;;;;;;
2021/10/27 01:01:15;;;;;;;19.23;9.02;;;;;;;14.89;66.82;100338.78;4993332;28;20097;-85
2021/10/27 01:03:57;;;;;;;17.17;8.95;;;;;;;14.93;66.62;100337.63;4990769;28;20062;-84
2021/10/27 01:06:24;;;;;;;17.08;9.45;;;;;;;14.92;66.54;100330.59;4974296;28;20405;-84
2021/10/27 01:08:50;;;;;;;15.98;10.07;;;;;;;14.91;66.69;100330.72;4951947;28;20055;-83
2021/10/27 01:11:20;;;;;;;13.05;9.55;;;;;;;14.90;67.12;100327.22;4952364;28;20051;-85
2021/10/27 01:13:47;;;;;;;11.60;9.25;;;;;;;14.92;66.80;100324.47;4952280;28;20051;-84
2021/10/27 01:16:14;;;;;;;17.17;9.45;;;;;;;14.93;66.88;100328.81;4951177;28;20051;-84
2021/10/27 01:46:02;;;;;;;13.18;9.73;;;;;;;14.90;68.23;100316.59;4971310;28;20054;-82
2021/10/27 01:48:35;;;;;;;12.30;8.60;;;;;;;14.92;67.23;100306.75;4972691;28;20058;-82
2021/10/27 01:51:02;;;;;;;12.93;8.63;;;;;;;14.92;67.22;100309.38;4971197;28;20111;-82
2021/10/27 01:53:29;;;;;;;15.52;10.00;;;;;;;14.91;67.48;100298.91;4971076;28;20078;-82
2021/10/27 01:55:56;;;;;;;13.32;9.52;;;;;;;14.90;67.65;100295.41;4971129;28;20054;-82
2021/10/27 01:58:29;;;;;;;13.95;9.20;;;;;;;14.87;68.50;100300.91;4971147;28;20475;-82
2021/10/27 02:01:02;;;;;;;16.25;9.98;;;;;;;14.89;67.73;100287.56;4970943;28;20065;-82
2021/10/27 02:03:29;;;;;;;16.17;9.43;;;;;;;14.88;67.77;100297.28;4971077;28;20047;-82
2021/10/27 02:06:19;;;;;;;17.95;9.65;;;;;;;14.84;68.96;100293.19;4971102;28;20054;-82
2021/10/27 02:08:47;;;;;;;15.35;9.85;;;;;;;14.89;68.00;100287.56;4970959;28;20467;-82
2021/10/27 02:11:16;;;;;;;15.82;10.38;;;;;;;14.87;68.37;100285.00;4971029;28;20051;-82
2021/10/27 02:13:53;;;;;;;14.93;9.80;;;;;;;14.89;68.25;100283.09;4970947;28;20054;-82
2021/10/27 02:16:22;;;;;;;18.15;11.23;;;;;;;14.89;68.20;100283.09;4970713;28;20055;-82
2021/10/27 02:18:56;;;;;;;14.70;10.32;;;;;;;14.89;68.70;100282.25;4971122;28;20063;-82
2021/10/27 02:21:30;;;;;;;12.57;9.48;;;;;;;14.91;68.37;100283.84;4971792;28;20096;-82
2021/10/27 02:24:20;;;;;;;17.98;10.38;;;;;;;14.91;68.59;100286.50;4983184;28;20564;-82
2021/10/27 02:26:52;;;;;;;14.60;9.45;;;;;;;14.94;68.14;100283.66;4969676;28;20058;-82
2021/10/27 02:29:20;;;;;;;15.07;10.02;;;;;;;14.94;68.36;100283.66;4970423;28;20081;-82
2021/10/27 02:32:03;;;;;;;14.10;9.82;;;;;;;14.91;69.07;100286.50;4970519;28;20050;-82
2021/10/27 02:34:30;;;;;;;16.50;9.30;;;;;;;14.96;68.39;100287.03;4971506;28;20133;-82
2021/10/27 02:37:11;;;;;;;13.95;10.35;;;;;;;14.93;69.08;100297.00;4970378;28;20057;-82
2021/10/27 02:39:41;;;;;;;13.77;10.13;;;;;;;14.97;68.35;100288.75;4971477;28;20094;-82
2021/10/27 02:42:08;;;;;;;12.80;9.73;;;;;;;14.97;68.44;100290.53;4971467;28;20141;-82
2021/10/27 02:44:36;;;;;;;11.57;9.55;;;;;;;14.97;68.57;100287.88;4974106;28;20050;-82
2021/10/27 02:47:04;;;;;;;18.45;10.00;;;;;;;14.98;68.63;100290.44;4974408;28;20051;-80
2021/10/27 02:49:35;;;;;;;18.60;10.38;;;;;;;14.98;68.83;100292.22;4973619;28;20055;-81
2021/10/27 02:52:06;;;;;;;12.80;10.45;;;;;;;14.98;69.21;100289.59;4974064;28;20059;-81
2021/10/27 02:54:43;;;;;;;12.68;10.05;;;;;;;14.98;69.36;100287.78;4973703;28;20071;-80
2021/10/27 02:57:09;;;;;;;14.02;9.38;;;;;;;15.01;68.61;100292.03;4973208;28;20150;-81
2021/10/27 02:59:37;;;;;;;14.35;10.10;;;;;;;15.03;68.72;100291.94;4972660;28;20138;-80
2021/10/27 03:02:04;;;;;;;16.65;9.90;;;;;;;15.03;68.77;100281.34;4973400;28;20051;-81
2021/10/27 03:04:31;;;;;;;12.38;9.85;;;;;;;15.04;68.77;100283.88;4973718;28;20752;-81
2021/10/27 03:07:00;;;;;;;13.15;9.40;;;;;;;15.06;69.02;100289.09;4973836;28;20508;-80
2021/10/27 03:09:26;;;;;;;11.93;8.93;;;;;;;15.07;68.74;100286.31;4973189;28;20061;-80
2021/10/27 03:11:53;;;;;;;13.05;9.70;;;;;;;15.07;68.76;100288.97;4973497;28;20501;-80
2021/10/27 03:14:20;;;;;;;13.63;9.48;;;;;;;15.08;68.73;100271.25;4973106;28;20154;-80
2021/10/27 03:16:47;;;;;;;14.02;9.95;;;;;;;15.10;68.78;100290.56;4973206;28;20057;-80
2021/10/27 03:19:19;;;;;;;15.68;9.68;;;;;;;15.08;69.27;100293.34;4973389;28;20406;-80
2021/10/27 03:21:45;;;;;;;11.02;9.32;;;;;;;15.11;68.77;100303.72;4973351;28;20061;-80
2021/10/27 03:24:13;;;;;;;13.43;9.25;;;;;;;15.13;68.86;100303.59;4973428;28;20088;-80
2021/10/27 03:26:39;;;;;;;14.02;9.52;;;;;;;15.14;68.97;100297.34;4973437;28;20083;-80
2021/10/27 03:29:07;;;;;;;16.27;9.50;;;;;;;15.14;68.84;100293.88;4973083;28;20054;-81
2021/10/27 03:31:34;;;;;;;11.35;9.65;;;;;;;15.13;68.62;100285.03;4972972;28;20061;-80
2021/10/27 03:34:02;;;;;;;10.95;9.68;;;;;;;15.14;68.98;100292.03;4973031;28;20090;-81
2021/10/27 03:36:34;;;;;;;13.63;9.60;;;;;;;15.10;69.73;100302.00;4972805;28;20047;-80
2021/10/27 03:39:02;;;;;;;14.20;10.40;;;;;;;15.14;68.97;100302.66;4973046;28;20129;-80
2021/10/27 03:41:38;;;;;;;10.75;9.57;;;;;;;15.10;69.91;100303.81;4972817;28;20094;-80
2021/10/27 03:44:05;;;;;;;12.35;9.88;;;;;;;15.13;69.12;100305.44;4973107;28;20475;-80
2021/10/27 03:46:32;;;;;;;12.75;9.63;;;;;;;15.13;69.22;100303.59;4972921;28;20141;-80
2021/10/27 03:49:03;;;;;;;15.48;10.00;;;;;;;15.10;69.78;100296.72;4972919;28;20059;-81
2021/10/27 03:51:30;;;;;;;11.00;9.77;;;;;;;15.10;69.39;100296.72;4972709;28;20058;-80
2021/10/27 03:54:03;;;;;;;10.55;9.45;;;;;;;15.07;70.32;100298.72;4971850;28;20487;-81
2021/10/27 03:56:30;;;;;;;13.38;9.68;;;;;;;15.09;69.37;100299.47;4972714;28;20051;-80
2021/10/27 03:58:56;;;;;;;13.65;10.05;;;;;;;15.07;69.48;100291.59;4972323;28;20065;-80
2021/10/27 04:01:24;;;;;;;11.00;9.32;;;;;;;15.07;69.76;100290.78;4974024;28;20054;-81
2021/10/27 04:03:51;;;;;;;18.65;9.88;;;;;;;15.07;69.66;100290.78;4972561;28;20055;-80
2021/10/27 04:06:25;;;;;;;10.02;8.95;;;;;;;15.04;70.49;100293.63;4972926;28;20485;-80
2021/10/27 04:08:51;;;;;;;13.07;9.32;;;;;;;15.05;69.90;100290.00;4972532;28;20066;-80
2021/10/27 04:11:18;;;;;;;11.10;9.95;;;;;;;15.05;69.91;100297.97;4973462;28;20133;-80
2021/10/27 04:13:52;;;;;;;13.63;9.25;;;;;;;15.03;70.82;100297.25;4972299;28;20138;-80
2021/10/27 04:16:19;;;;;;;13.07;9.20;;;;;;;15.06;70.08;100302.34;4972274;28;20064;-80
2021/10/27 04:18:45;;;;;;;11.00;9.35;;;;;;;15.06;70.17;100310.28;4972149;28;20090;-80
2021/10/27 04:21:15;;;;;;;12.02;9.45;;;;;;;15.06;70.77;100312.94;4972590;28;20386;-80
2021/10/27 04:23:42;;;;;;;12.95;9.43;;;;;;;15.07;70.15;100312.00;4972188;28;20145;-80
2021/10/27 04:26:09;;;;;;;11.43;9.30;;;;;;;15.08;70.36;100318.97;4972239;28;20133;-80
2021/10/27 04:28:39;;;;;;;11.05;8.63;;;;;;;15.06;70.99;100312.94;4971938;28;20134;-80
2021/10/27 04:31:06;;;;;;;11.70;9.18;;;;;;;15.07;70.38;100312.81;4972284;28;20108;-80
2021/10/27 04:33:37;;;;;;;10.32;9.27;;;;;;;15.06;71.08;100310.28;4972266;28;20132;-80
2021/10/27 04:36:04;;;;;;;11.65;8.98;;;;;;;15.09;70.56;100312.72;4971898;28;20051;-80
2021/10/27 04:38:33;;;;;;;10.57;9.13;;;;;;;15.08;70.82;100308.38;4971891;28;20145;-80
2021/10/27 04:41:00;;;;;;;10.45;8.98;;;;;;;15.11;70.54;100314.31;4972190;28;20392;-80
2021/10/27 04:43:30;;;;;;;12.15;9.52;;;;;;;15.10;71.12;100314.41;4972283;28;20486;-80
2021/10/27 04:45:58;;;;;;;10.52;9.45;;;;;;;15.11;70.76;100319.63;4971854;28;20133;-80
2021/10/27 04:48:24;;;;;;;10.88;9.75;;;;;;;15.12;70.66;100325.78;4971842;28;20145;-80
2021/10/27 04:50:51;;;;;;;12.93;9.35;;;;;;;15.13;70.61;100324.00;4971801;28;20051;-80
2021/10/27 04:53:19;;;;;;;11.82;9.73;;;;;;;15.11;70.79;100321.44;4972054;28;20395;-80
2021/10/27 04:55:55;;;;;;;13.52;9.82;;;;;;;15.08;71.76;100324.28;4971825;28;20635;-80
2021/10/27 04:58:22;;;;;;;14.07;9.80;;;;;;;15.11;70.70;100326.75;4971594;28;20138;-80
2021/10/27 05:00:50;;;;;;;12.45;9.65;;;;;;;15.10;70.79;100322.38;4971791;28;20061;-80
2021/10/27 05:03:17;;;;;;;12.00;8.98;;;;;;;15.11;70.95;100324.09;4971862;28;20057;-80
2021/10/27 05:05:49;;;;;;;12.48;9.73;;;;;;;15.11;71.69;100321.44;4971781;28;20054;-80
2021/10/27 05:08:18;;;;;;;11.53;9.13;;;;;;;15.13;70.93;100326.66;4971580;28;20050;-81
2021/10/27 05:10:52;;;;;;;10.73;8.90;;;;;;;15.11;71.97;100324.91;4971645;28;20410;-80
2021/10/27 05:13:20;;;;;;;11.68;9.57;;;;;;;15.14;71.08;100328.34;4971640;28;20523;-80
2021/10/27 05:15:48;;;;;;;9.93;8.68;;;;;;;15.15;70.98;100325.59;4971390;28;20051;-80
2021/10/27 05:18:16;;;;;;;13.45;9.32;;;;;;;15.16;71.00;100326.41;4971238;28;20094;-80
2021/10/27 05:20:52;;;;;;;12.13;8.50;;;;;;;15.14;71.60;100323.03;4971601;28;20054;-80
2021/10/27 05:23:18;;;;;;;11.32;8.73;;;;;;;15.18;70.90;100322.69;4971460;28;20133;-80
2021/10/27 05:25:48;;;;;;;11.10;8.77;;;;;;;15.17;71.21;100325.47;4971566;28;20046;-80
2021/10/27 05:28:15;;;;;;;13.57;9.55;;;;;;;15.19;70.94;100327.06;4971856;28;20050;-80
2021/10/27 05:30:44;;;;;;;26.35;9.10;;;;;;;15.18;71.41;100328.00;4973004;28;20130;-80
2021/10/27 05:33:10;;;;;;;12.57;9.15;;;;;;;15.20;70.93;100331.41;4971437;28;20473;-80
2021/10/27 05:35:37;;;;;;;13.20;9.55;;;;;;;15.21;70.99;100329.59;4970982;28;20054;-80
2021/10/27 05:38:14;;;;;;;12.18;8.77;;;;;;;15.19;71.70;100336.81;4971338;28;20463;-80
2021/10/27 05:40:41;;;;;;;12.75;8.77;;;;;;;15.22;70.97;100326.03;4971299;28;20495;-80
2021/10/27 05:43:10;;;;;;;10.70;9.30;;;;;;;15.22;71.02;100334.81;4970966;28;20138;-81
2021/10/27 05:45:55;;;;;;;10.25;9.00;;;;;;;15.19;71.92;100332.38;4971169;28;20403;-81
2021/10/27 05:48:34;;;;;;;11.98;9.35;;;;;;;15.23;71.27;100339.19;4970864;28;20051;-81
2021/10/27 05:56:20;;;;;;;15.23;9.15;;;;;;;15.27;70.79;100350.41;4971635;28;20138;-81
2021/10/27 05:58:53;;;;;;;12.52;8.57;;;;;;;15.25;71.23;100347.00;4971014;28;20407;-81
2021/10/27 06:01:20;;;;;;;11.68;8.18;;;;;;;15.30;70.72;100352.88;4971019;28;20063;-81
2021/10/27 06:03:47;;;;;;;13.20;8.55;;;;;;;15.30;70.65;100350.22;4971109;28;20603;-81
2021/10/27 06:06:27;;;;;;;13.25;8.40;;;;;;;15.26;71.24;100348.72;4970971;28;20433;-81
2021/10/27 06:08:57;;;;;;;11.63;8.85;;;;;;;15.31;70.64;100356.34;4972086;28;20130;-81
2021/10/27 06:11:24;;;;;;;9.70;7.93;;;;;;;15.31;70.49;100351.06;4970689;28;20065;-82
2021/10/27 06:13:52;;;;;;;13.40;8.93;;;;;;;15.30;70.73;100346.72;4970954;28;20054;-83
2021/10/27 06:16:18;;;;;;;11.32;7.90;;;;;;;15.30;70.43;100355.53;4970646;28;20047;-82
2021/10/27 06:18:50;;;;;;;10.73;7.90;;;;;;;15.29;70.78;100361.75;4974538;28;20073;-81
2021/10/27 06:21:17;;;;;;;9.50;8.20;;;;;;;15.30;70.44;100360.84;4974163;28;20129;-81
2021/10/27 06:23:51;;;;;;;12.90;8.45;;;;;;;15.28;70.94;100357.41;4973938;28;20058;-82
2021/10/27 06:26:19;;;;;;;12.95;8.07;;;;;;;15.32;70.46;100363.34;4973978;28;20090;-82
2021/10/27 06:34:30;;;;;;;10.48;7.28;;;;;;;15.30;70.83;100362.63;4974998;28;20051;-88
2021/10/27 06:46:12;;;;;;;10.88;6.25;;;;;;;15.31;70.22;100377.56;4975131;28;20100;-89
2021/10/27 06:48:40;;;;;;;9.30;6.07;;;;;;;15.31;70.27;100378.44;4973615;28;20101;-89
2021/10/27 06:51:09;;;;;;;13.63;6.40;;;;;;;15.30;70.31;100386.50;4974367;28;20059;-89
2021/10/27 06:53:42;;;;;;;11.82;6.57;;;;;;;15.30;70.48;100389.16;4973675;28;20137;-88
2021/10/27 06:56:21;;;;;;;10.75;5.85;;;;;;;15.30;70.30;100392.66;4973359;28;20051;-89
2021/10/27 06:59:15;;;;;;;10.63;6.05;;;;;;;15.28;70.80;100399.03;4973501;28;20475;-86
2021/10/27 07:02:11;;;;;;;11.23;6.18;;;;;;;15.33;70.37;100404.88;4973912;28;20430;-88
2021/10/27 07:16:15;;;;;;;8.15;4.97;;;;;;;15.37;70.58;100425.75;4974384;28;20042;-88
2021/10/27 07:18:42;;;;;;;11.35;5.20;;;;;;;15.40;70.11;100430.00;4973450;28;20563;-88
2021/10/27 07:21:16;;;;;;;9.00;5.18;;;;;;;15.37;70.55;100425.75;4973242;28;20090;-88
2021/10/27 07:23:43;;;;;;;8.77;5.15;;;;;;;15.41;70.20;100434.38;4973562;28;20058;-88
2021/10/27 07:26:09;;;;;;;9.38;5.30;;;;;;;15.41;70.11;100433.53;4973441;28;20122;-88
2021/10/27 07:28:36;;;;;;;11.43;4.75;;;;;;;15.43;70.09;100436.91;4973137;28;20108;-88
2021/10/27 07:31:04;;;;;;;9.55;4.53;;;;;;;15.41;70.08;100442.34;4973114;28;20055;-88
2021/10/27 07:33:37;;;;;;;11.38;4.97;;;;;;;15.40;70.35;100445.94;4973239;28;20128;-82
2021/10/27 07:41:48;;;;;;;10.25;5.00;;;;;;;15.36;70.67;100433.81;4974079;28;20050;-82
2021/10/27 07:44:16;;;;;;;9.25;5.15;;;;;;;15.41;70.11;100436.19;4972890;28;20050;-81
2021/10/27 07:46:44;;;;;;;10.65;4.50;;;;;;;15.39;70.31;100433.63;4973065;28;20042;-82
2021/10/27 07:49:14;;;;;;;8.77;5.22;;;;;;;15.38;70.68;100447.84;4972758;28;20055;-81
2021/10/27 07:51:56;;;;;;;10.88;4.95;;;;;;;15.36;70.85;100449.72;4973820;28;20425;-82
2021/10/27 07:54:23;;;;;;;8.90;4.82;;;;;;;15.41;70.13;100444.13;4973006;28;20418;-82
2021/10/27 07:56:50;;;;;;;8.23;4.50;;;;;;;15.38;70.23;100437.22;4972836;28;20478;-82
2021/10/27 07:59:20;;;;;;;8.05;4.93;;;;;;;15.37;70.38;100446.97;4984372;28;20407;-82
2021/10/27 08:01:48;;;;;;;8.48;4.47;;;;;;;15.37;70.39;100436.38;4972585;28;20046;-82
2021/10/27 08:04:16;;;;;;;11.52;4.93;;;;;;;15.36;70.47;100439.97;4972772;28;20415;-82
2021/10/27 08:06:47;;;;;;;11.70;4.45;;;;;;;15.36;70.63;100447.06;4972506;28;20043;-81
2021/10/27 08:09:15;;;;;;;9.00;4.63;;;;;;;15.37;70.46;100454.09;4972394;28;20046;-82
2021/10/27 08:11:50;;;;;;;7.18;4.97;;;;;;;15.35;70.85;100446.25;4972759;28;20471;-82
2021/10/27 08:14:18;;;;;;;8.85;4.90;;;;;;;15.36;70.31;100450.59;4973145;28;20050;-82
2021/10/27 08:16:48;;;;;;;9.07;4.55;;;;;;;15.34;70.75;100449.84;4972297;28;20043;-81
2021/10/27 08:19:15;;;;;;;10.88;4.70;;;;;;;15.35;70.52;100450.69;4972079;28;20546;-81
2021/10/27 08:21:47;;;;;;;10.07;4.97;;;;;;;15.33;70.69;100445.47;4972405;28;20054;-81
2021/10/27 08:24:21;;;;;;;6.30;4.13;;;;;;;15.36;70.48;100452.38;4972360;28;20100;-81
2021/10/27 08:26:55;;;;;;;7.00;4.35;;;;;;;15.36;70.56;100455.03;4972963;28;20051;-80
2021/10/27 08:29:31;;;;;;;6.65;4.43;;;;;;;15.35;70.99;100463.94;4979695;28;20044;-81
2021/10/27 08:32:01;;;;;;;7.07;4.38;;;;;;;15.39;70.59;100464.63;4898783;28;20485;-81
2021/10/27 08:34:46;;;;;;;10.13;4.70;;;;;;;15.36;70.92;100476.25;4898382;29;20498;-81
2021/10/27 08:37:15;;;;;;;8.55;4.47;;;;;;;15.42;70.52;100465.25;4898239;29;20536;-82
2021/10/27 08:40:19;;;;;;;8.00;4.63;;;;;;;15.42;70.85;100464.41;4897926;29;20147;-82
2021/10/27 08:42:48;;;;;;;11.23;4.53;;;;;;;15.47;70.59;100460.50;4913773;28;20052;-82
2021/10/27 08:45:15;;;;;;;8.18;3.90;;;;;;;15.49;70.22;100461.25;4913847;29;20147;-82
2021/10/27 08:48:07;;;;;;;11.55;5.10;;;;;;;15.46;70.81;100466.75;4897964;29;20140;-82
2021/10/27 08:50:51;;;;;;;8.27;3.67;;;;;;;15.47;70.52;100468.44;4897847;29;20056;-82
2021/10/27 08:53:21;;;;;;;7.65;3.97;;;;;;;15.53;70.19;100464.53;4911408;28;20491;-81
2021/10/27 08:56:04;;;;;;;7.32;4.18;;;;;;;15.50;70.40;100462.94;4972079;28;20493;-82
2021/10/27 08:58:37;;;;;;;8.60;4.25;;;;;;;15.56;70.11;100460.84;4971878;28;20073;-82
2021/10/27 09:04:23;;;;;;;9.98;4.75;;;;;;;15.53;70.30;100464.53;4973401;28;20047;-82
2021/10/27 10:06:47;;;;;;;7.10;3.40;;;;;;;16.21;68.92;100467.09;4972144;28;20101;-89
2021/10/27 10:09:15;;;;;;;5.35;2.65;;;;;;;16.29;69.01;100463.91;4971337;28;20100;-82
2021/10/27 10:11:42;;;;;;;4.85;3.25;;;;;;;16.36;69.04;100459.00;4970747;28;20517;-82
2021/10/27 10:14:14;;;;;;;6.85;3.38;;;;;;;16.42;68.89;100461.25;4971017;28;20133;-82
2021/10/27 10:16:48;;;;;;;7.00;3.67;;;;;;;16.51;68.88;100465.03;4970609;28;20055;-82
2021/10/27 10:19:22;;;;;;;6.07;3.20;;;;;;;16.60;68.68;100461.72;4970416;28;20053;-82
2021/10/27 10:21:51;;;;;;;7.90;3.60;;;;;;;16.70;68.75;100451.28;4970521;28;20134;-81
2021/10/27 10:26:47;;;;;;;10.98;4.10;;;;;;;16.92;68.60;100463.03;4971989;28;20448;-84
2021/10/27 10:29:42;;;;;;;8.25;3.13;;;;;;;16.98;67.74;100470.56;4970659;28;20050;-81
2021/10/27 10:34:54;;;;;;;7.95;3.80;;;;;;;17.18;67.90;100458.50;4971551;28;20059;-81
2021/10/27 10:37:35;;;;;;;8.75;3.30;;;;;;;17.26;67.49;100467.72;4970419;28;20101;-81
2021/10/27 10:57:42;;;;;;;10.02;3.25;;;;;;;17.77;64.79;100469.25;4971259;28;20461;-81
2021/10/27 11:38:15;;;;;;;6.50;2.67;;;;;;;19.69;62.11;100438.09;4974027;28;20487;-82
2021/10/27 11:40:47;;;;;;;4.70;2.28;;;;;;;19.82;61.81;100437.06;4973215;28;20431;-82
2021/10/27 11:45:53;;;;;;;6.50;2.90;;;;;;;20.11;63.10;100423.88;4974046;28;20483;-82
2021/10/27 11:51:09;;;;;;;8.10;2.78;;;;;;;20.81;62.44;100432.97;4973868;28;20042;-82
2021/10/27 11:53:49;;;;;;;7.57;2.42;;;;;;;21.15;58.29;100429.13;4972813;28;20054;-82
2021/10/27 11:56:23;;;;;;;5.22;2.75;;;;;;;21.46;58.96;100420.94;4972584;28;20499;-83
2021/10/27 11:58:54;;;;;;;6.97;2.90;;;;;;;21.69;58.94;100425.97;4972865;28;20058;-83
2021/10/27 12:01:41;;;;;;;7.40;2.45;;;;;;;21.86;57.12;100422.56;4972916;28;20051;-83
2021/10/27 12:04:31;;;;;;;;;;;;;;;22.08;60.02;100414.31;4974037;28;20041;-83
2021/10/27 12:07:07;;;;;;;5.85;2.38;;;;;;;22.30;54.40;100417.59;4972656;28;19928;-83
2021/10/27 12:18:21;;;;;;;6.38;2.38;;;;;;;22.02;53.97;100410.41;4973799;28;20043;-83
2021/10/27 12:20:56;;;;;;;6.00;2.30;;;;;;;21.82;53.76;100414.94;4973855;28;20509;-83
2021/10/27 12:23:26;;;;;;;6.10;2.47;;;;;;;21.60;54.02;100406.22;4972595;28;20537;-83
2021/10/27 12:29:27;;;;;;;5.43;2.17;;;;;;;21.05;55.38;100400.50;4973441;28;20538;-84
2021/10/27 12:32:19;;;;;;;6.18;2.53;;;;;;;20.75;55.47;100401.44;4972470;28;20055;-83
2021/10/27 12:34:51;;;;;;;4.13;1.98;;;;;;;20.60;55.68;100400.97;4973564;28;20495;-83
2021/10/27 12:37:48;;;;;;;;;;;;;;;20.42;56.66;100402.47;4972613;28;20130;-83
2021/10/27 12:43:03;;;;;;;9.00;2.83;;;;;;;20.05;55.80;100401.22;4973437;28;20412;-87
2021/10/27 12:45:46;;;;;;;3.28;2.13;;;;;;;19.87;56.83;100394.75;4996724;28;20046;-88
2021/10/27 12:48:18;;;;;;;7.88;2.95;;;;;;;19.79;57.26;100398.09;4996652;28;20092;-88
2021/10/27 12:51:01;;;;;;;5.05;2.47;;;;;;;19.61;57.05;100397.84;4996535;28;20060;-88
2021/10/27 12:53:38;;;;;;;5.38;2.55;;;;;;;19.50;57.12;100398.75;4997112;28;20053;-82
2021/10/27 12:56:08;;;;;;;6.50;3.10;;;;;;;19.45;57.95;100392.97;4996562;28;20446;-83
2021/10/27 12:59:07;;;;;;;7.03;3.20;;;;;;;19.28;58.01;100395.22;4996366;28;20050;-83
2021/10/27 13:04:53;;;;;;;6.45;2.60;;;;;;;19.13;58.31;100390.22;5012685;28;20040;-83
2021/10/27 13:07:53;;;;;;;5.57;2.70;;;;;;;19.05;58.64;100389.09;5012582;28;20080;-82
2021/10/27 13:10:40;;;;;;;6.68;2.72;;;;;;;18.97;58.54;100385.28;4980111;28;20137;-82
2021/10/27 13:15:57;;;;;;;5.45;2.88;;;;;;;18.82;59.03;100387.38;4972822;28;20145;-83
2021/10/27 13:29:43;;;;;;;5.60;2.83;;;;;;;18.70;59.94;100373.25;4972398;28;20455;-82
2021/10/27 13:32:19;;;;;;;8.88;2.50;;;;;;;18.69;59.99;100374.19;4972312;28;20047;-81
2021/10/27 13:34:47;;;;;;;6.75;2.92;;;;;;;18.71;59.76;100379.41;4971152;28;20475;-81
2021/10/27 13:37:15;;;;;;;8.02;2.88;;;;;;;18.71;59.84;100384.72;4971177;28;20475;-81
2021/10/27 13:40:11;;;;;;;6.13;2.67;;;;;;;18.67;60.16;100381.47;4971341;28;20153;-83
2021/10/27 13:58:44;;;;;;;4.65;2.60;;;;;;;18.69;58.94;100373.34;4972131;28;20442;-87
2021/10/27 14:07:31;;;;;;;5.95;2.30;;;;;;;18.61;59.21;100376.63;4971958;28;20441;-82
2021/10/27 14:10:15;;;;;;;4.03;1.98;;;;;;;18.61;59.34;100369.50;4974736;28;20139;-82
2021/10/27 14:12:53;;;;;;;4.85;2.20;;;;;;;18.60;58.78;100381.13;4970958;28;20479;-82
2021/10/27 14:15:46;;;;;;;6.88;2.50;;;;;;;18.58;58.54;100379.56;4971136;28;20134;-82
2021/10/27 14:41:27;;;;;;;7.60;2.50;;;;;;;18.42;59.15;100374.59;4975806;28;20410;-82
2021/10/27 15:20:54;;;;;;;3.67;1.98;;;;;;;18.04;58.87;100324.25;4974686;28;20389;-81
2021/10/27 15:27:41;;;;;;;5.30;2.28;;;;;;;17.99;nan;100321.09;4975320;28;20065;-82
2021/10/27 15:29:18;;;;;;;4.03;2.20;;;;;;;17.97;59.05;100321.22;4974177;28;20105;-81
2021/10/27 15:41:14;;;;;;;5.63;1.90;;;;;;;17.87;59.39;100324.75;4974178;28;20053;-82
2021/10/27 15:43:49;;;;;;;5.63;2.17;;;;;;;17.84;59.53;100326.66;4973323;28;20475;-83
2021/10/27 15:52:22;;;;;;;7.82;2.58;;;;;;;17.79;59.45;100326.19;4996833;28;20045;-81
2021/10/27 15:54:50;;;;;;;5.00;2.25;;;;;;;17.75;59.44;100319.41;5054551;28;20141;-82
2021/10/27 15:57:19;;;;;;;5.18;2.10;;;;;;;17.71;59.39;100321.47;5055789;28;20497;-81
2021/10/27 15:59:50;;;;;;;5.68;1.90;;;;;;;17.69;59.40;100317.22;5055291;28;20394;-80
2021/10/27 16:02:16;;;;;;;4.78;2.58;;;;;;;17.66;59.63;100320.97;5054418;28;20140;-81
2021/10/27 16:04:46;;;;;;;6.53;2.20;;;;;;;17.63;59.42;100317.69;5054528;28;20437;-81
2021/10/27 16:07:16;;;;;;;6.22;2.60;;;;;;;17.60;59.43;100321.44;5054366;28;20052;-80
2021/10/27 16:09:45;;;;;;;5.55;1.83;;;;;;;17.57;59.67;100321.69;5054116;28;20059;-82
2021/10/27 16:12:25;;;;;;;4.03;1.88;;;;;;;17.55;59.53;100323.63;5055790;28;20088;-82
2021/10/27 16:14:53;;;;;;;6.88;2.22;;;;;;;17.52;59.44;100319.38;5054187;28;20099;-81
2021/10/27 16:17:21;;;;;;;6.82;2.08;;;;;;;17.49;59.56;100318.78;5054366;28;20099;-81
2021/10/27 16:19:48;;;;;;;4.95;1.95;;;;;;;17.44;59.72;100320.00;5054237;28;20060;-88
2021/10/27 16:22:19;;;;;;;4.25;2.40;;;;;;;17.41;59.86;100325.53;5054919;28;20128;-87
2021/10/27 16:24:49;;;;;;;7.35;1.90;;;;;;;17.36;59.63;100324.19;5054831;28;20049;-87
2021/10/27 16:27:16;;;;;;;5.20;2.25;;;;;;;17.34;59.66;100315.50;5055120;28;20143;-82
2021/10/27 16:29:45;;;;;;;6.07;2.25;;;;;;;17.29;59.91;100327.34;5054272;28;20409;-81
2021/10/27 16:32:12;;;;;;;5.85;2.20;;;;;;;17.26;59.84;100324.91;5054284;28;20088;-82
2021/10/27 16:34:40;;;;;;;6.05;2.22;;;;;;;17.23;59.97;100325.13;5054108;28;20075;-82
2021/10/27 16:37:34;;;;;;;6.07;2.10;;;;;;;17.16;59.95;100329.22;4999140;28;20085;-82
2021/10/27 16:40:04;;;;;;;10.15;2.35;;;;;;;17.16;59.80;100324.75;4997110;28;20054;-82
2021/10/27 16:42:52;;;;;;;6.30;2.00;;;;;;;17.08;59.92;100323.66;4997285;28;20054;-87
2021/10/27 16:45:19;;;;;;;4.30;2.10;;;;;;;17.08;59.79;100320.97;4996762;28;20085;-87
2021/10/27 16:47:46;;;;;;;6.50;2.03;;;;;;;17.04;59.89;100325.63;5012889;28;20046;-88
2021/10/27 16:50:15;;;;;;;3.30;1.75;;;;;;;16.98;60.19;100321.66;5012745;28;20129;-87
2021/10/27 16:52:46;;;;;;;3.95;1.85;;;;;;;16.93;60.31;100323.78;4996399;28;20491;-87
2021/10/27 16:55:19;;;;;;;4.40;1.50;;;;;;;16.90;60.07;100334.66;5015154;28;20124;-87
2021/10/27 16:57:48;;;;;;;5.85;2.15;;;;;;;16.86;60.18;100333.19;5053796;28;20102;-80
2021/10/27 17:00:19;;;;;;;6.57;2.15;;;;;;;16.80;60.49;100332.69;5052932;28;20049;-80
2021/10/27 17:02:52;;;;;;;6.20;2.57;;;;;;;16.77;60.49;100332.91;5053161;28;20132;-80
2021/10/27 17:05:19;;;;;;;5.73;2.13;;;;;;;16.75;60.24;100339.31;5053026;28;20319;-80
2021/10/27 17:07:47;;;;;;;3.80;1.95;;;;;;;16.71;60.34;100330.69;5053360;28;20779;-80
2021/10/27 17:10:16;;;;;;;5.78;2.30;;;;;;;16.68;60.55;100337.09;5053333;28;20104;-80
2021/10/27 17:12:44;;;;;;;4.38;1.63;;;;;;;16.63;60.70;100344.56;5052833;28;20049;-80